Time;durP1;ratioP1;P1;durP2;ratioP2;P2;SDS_P1;SDS_P2;PMS_P1;PMS_P2;Temp;Humidity;BMP_temperature;BMP_pressure;BME280_temperature;BME280_humidity;BME280_pressure;Samples;Min_cycle;Max_cycle;Signal;HPM_P1;HPM_P2
2022/04/03 00:00:54;;;;;;;1.63;1.08;;;17.70;70.50;;;;;;4212790;28;20270;-71
2022/04/03 00:02:57;;;;;;;1.48;1.20;;;17.80;70.80;;;;;;4212703;28;20583;-71
2022/04/03 00:04:59;;;;;;;1.70;1.15;;;17.70;70.30;;;;;;4218084;28;20623;-72
2022/04/03 00:07:02;;;;;;;1.83;1.40;;;17.70;70.40;;;;;;4212256;28;20218;-71
2022/04/03 00:09:05;;;;;;;2.08;1.40;;;17.70;70.30;;;;;;4213002;28;20215;-71
2022/04/03 00:11:09;;;;;;;2.20;1.10;;;17.70;70.40;;;;;;4212652;28;20210;-71
2022/04/03 00:13:12;;;;;;;1.77;1.20;;;17.80;70.60;;;;;;4212996;28;20256;-71
2022/04/03 00:15:15;;;;;;;2.20;1.27;;;17.70;70.40;;;;;;4211871;28;20234;-71
2022/04/03 00:17:17;;;;;;;3.28;1.10;;;17.70;70.50;;;;;;4212035;28;20280;-71
2022/04/03 00:19:20;;;;;;;1.63;1.10;;;17.70;70.20;;;;;;4213327;28;20211;-71
2022/04/03 00:21:22;;;;;;;2.13;1.35;;;17.70;70.00;;;;;;4213033;28;20210;-71
2022/04/03 00:23:24;;;;;;;2.30;1.25;;;17.70;70.40;;;;;;4209343;28;20620;-71
2022/04/03 00:25:28;;;;;;;2.40;1.30;;;17.70;70.20;;;;;;4212473;28;20210;-71
2022/04/03 00:27:30;;;;;;;1.55;1.10;;;17.70;70.20;;;;;;4211514;28;20218;-71
2022/04/03 00:29:33;;;;;;;1.95;1.20;;;17.60;69.80;;;;;;4212568;28;20629;-71
2022/04/03 00:31:36;;;;;;;2.53;1.40;;;17.60;70.10;;;;;;4212550;28;20268;-71
2022/04/03 00:33:38;;;;;;;2.38;1.30;;;17.70;70.00;;;;;;4229430;28;20241;-71
2022/04/03 00:35:41;;;;;;;1.70;1.08;;;17.70;70.00;;;;;;4228593;28;20225;-71
2022/04/03 00:37:44;;;;;;;1.70;1.20;;;17.70;70.00;;;;;;4229689;28;20287;-72
2022/04/03 00:39:46;;;;;;;2.55;1.40;;;17.60;69.80;;;;;;4226476;28;20213;-71
2022/04/03 00:41:50;;;;;;;1.50;1.20;;;17.60;69.80;;;;;;4229706;28;20244;-71
2022/04/03 00:43:52;;;;;;;1.75;1.30;;;17.60;70.20;;;;;;4229309;28;20213;-71
2022/04/03 00:45:56;;;;;;;1.98;1.02;;;17.60;70.10;;;;;;4229679;28;20268;-71
2022/04/03 00:47:58;;;;;;;1.10;1.00;;;17.60;70.10;;;;;;4229797;28;20244;-71
2022/04/03 00:50:01;;;;;;;1.90;1.15;;;17.60;69.80;;;;;;4229078;28;20648;-71
2022/04/03 00:52:04;;;;;;;2.30;1.20;;;17.60;69.80;;;;;;4227971;28;20218;-71
2022/04/03 00:54:08;;;;;;;1.95;1.10;;;17.60;69.80;;;;;;4228712;28;20311;-71
2022/04/03 00:56:11;;;;;;;2.35;1.45;;;17.60;69.70;;;;;;4225424;28;20246;-71
2022/04/03 00:58:15;;;;;;;2.17;1.35;;;17.60;69.60;;;;;;4229286;28;20218;-71
2022/04/03 01:00:17;;;;;;;2.03;1.33;;;17.60;69.60;;;;;;4229307;28;20214;-71
2022/04/03 01:02:20;;;;;;;2.13;1.40;;;17.60;70.30;;;;;;4229451;28;20217;-71
2022/04/03 01:04:22;;;;;;;1.50;1.10;;;17.60;69.50;;;;;;4228960;28;20646;-71
2022/04/03 01:06:25;;;;;;;2.10;1.40;;;17.60;69.50;;;;;;4228929;28;20209;-71
2022/04/03 01:08:28;;;;;;;1.75;1.20;;;17.60;69.60;;;;;;4229379;28;20214;-71
2022/04/03 01:10:30;;;;;;;2.55;1.30;;;17.50;69.50;;;;;;4227247;28;20206;-71
2022/04/03 01:12:32;;;;;;;1.52;1.08;;;17.50;69.40;;;;;;4228389;28;20283;-71
2022/04/03 01:14:38;;;;;;;1.40;1.13;;;17.50;69.70;;;;;;4220279;28;20265;-71
2022/04/03 01:16:40;;;;;;;1.70;1.15;;;17.50;69.30;;;;;;4229054;28;20275;-71
2022/04/03 01:18:42;;;;;;;1.75;1.25;;;17.50;69.40;;;;;;4228538;28;20615;-71
2022/04/03 01:20:44;;;;;;;1.50;1.17;;;17.50;69.50;;;;;;4228493;28;20218;-71
2022/04/03 01:22:47;;;;;;;2.13;1.17;;;17.50;69.60;;;;;;4228834;28;20210;-71
2022/04/03 01:24:56;;;;;;;1.67;1.20;;;17.50;69.30;;;;;;4228776;28;20271;-71
2022/04/03 01:26:59;;;;;;;1.85;1.20;;;17.50;69.40;;;;;;4226277;28;20282;-71
2022/04/03 01:29:01;;;;;;;2.03;1.13;;;17.50;69.10;;;;;;4228740;28;20646;-72
2022/04/03 01:31:03;;;;;;;1.98;1.30;;;17.50;69.30;;;;;;4227788;28;20563;-71
2022/04/03 01:33:06;;;;;;;1.95;1.13;;;17.50;69.10;;;;;;4228435;28;20237;-71
2022/04/03 01:35:09;;;;;;;1.70;1.00;;;17.50;69.10;;;;;;4210896;28;20267;-71
2022/04/03 01:37:11;;;;;;;2.20;1.50;;;17.50;69.10;;;;;;4211687;28;20621;-71
2022/04/03 01:39:14;;;;;;;2.42;1.27;;;17.50;69.10;;;;;;4211912;28;20218;-71
2022/04/03 01:41:17;;;;;;;1.77;0.98;;;17.40;69.00;;;;;;4211747;28;20728;-71
2022/04/03 01:43:20;;;;;;;1.58;1.00;;;17.40;68.90;;;;;;4212035;28;20272;-70
2022/04/03 01:45:22;;;;;;;1.92;1.05;;;17.40;68.90;;;;;;4211858;28;20218;-71
2022/04/03 01:47:24;;;;;;;1.67;1.13;;;17.40;68.90;;;;;;4213462;28;20280;-71
2022/04/03 01:49:27;;;;;;;2.08;1.23;;;17.50;69.30;;;;;;4211838;28;20244;-71
2022/04/03 01:51:29;;;;;;;1.63;1.17;;;17.40;68.80;;;;;;4227586;28;20229;-71
2022/04/03 01:53:32;;;;;;;2.45;1.30;;;17.50;68.80;;;;;;4228387;28;20262;-71
2022/04/03 01:55:34;;;;;;;1.70;1.00;;;17.40;68.80;;;;;;4217456;28;20307;-71
2022/04/03 01:57:38;;;;;;;2.42;1.20;;;17.40;68.90;;;;;;4211562;28;20215;-71
2022/04/03 01:59:40;;;;;;;2.65;1.38;;;17.40;68.90;;;;;;4210633;28;20214;-72
2022/04/03 02:01:43;;;;;;;2.25;1.30;;;17.40;68.80;;;;;;4211775;28;20218;-72
2022/04/03 02:03:46;;;;;;;2.33;1.15;;;17.40;68.70;;;;;;4209610;28;20253;-72
2022/04/03 02:05:49;;;;;;;2.28;1.40;;;17.40;68.70;;;;;;4213971;28;20740;-72
2022/04/03 02:07:51;;;;;;;1.40;0.88;;;17.40;68.70;;;;;;4211367;28;20367;-72
2022/04/03 02:09:53;;;;;;;2.00;1.20;;;17.40;68.60;;;;;;4211656;28;20214;-74
2022/04/03 02:11:57;;;;;;;1.85;1.20;;;17.40;68.70;;;;;;4211659;28;20256;-72
2022/04/03 02:14:00;;;;;;;1.10;1.00;;;17.40;68.70;;;;;;4210703;28;20211;-72
2022/04/03 02:16:03;;;;;;;1.70;1.05;;;17.30;68.60;;;;;;4211491;28;20771;-72
2022/04/03 02:18:05;;;;;;;1.83;1.20;;;17.40;68.70;;;;;;4211714;28;20264;-72
2022/04/03 02:20:10;;;;;;;1.60;1.17;;;17.30;68.60;;;;;;4211397;28;20260;-72
2022/04/03 02:22:14;;;;;;;1.77;1.33;;;17.30;68.60;;;;;;4212156;28;20270;-73
2022/04/03 02:24:18;;;;;;;3.13;1.00;;;17.30;68.60;;;;;;4211944;28;20952;-72
2022/04/03 02:26:20;;;;;;;1.77;1.30;;;17.30;68.40;;;;;;4219913;28;20217;-72
2022/04/03 02:28:23;;;;;;;2.75;1.00;;;17.30;68.60;;;;;;4228577;28;20260;-72
2022/04/03 02:30:27;;;;;;;1.95;1.10;;;17.30;68.40;;;;;;4228486;28;20217;-72
2022/04/03 02:32:29;;;;;;;1.65;1.00;;;17.30;68.30;;;;;;4227826;28;20237;-71
2022/04/03 02:34:32;;;;;;;2.15;1.35;;;17.20;69.10;;;;;;4228215;28;20239;-71
2022/04/03 02:36:34;;;;;;;2.53;1.30;;;17.30;68.50;;;;;;4227722;28;20259;-71
2022/04/03 02:38:36;;;;;;;1.52;1.00;;;17.30;68.30;;;;;;4220198;28;20250;-71
2022/04/03 02:40:39;;;;;;;2.17;1.15;;;17.30;68.60;;;;;;4211266;28;20256;-71
2022/04/03 02:42:41;;;;;;;2.50;1.15;;;17.30;68.50;;;;;;4211214;28;20218;-71
2022/04/03 02:44:44;;;;;;;2.33;1.48;;;17.30;68.30;;;;;;4211170;28;20214;-71
2022/04/03 02:46:47;;;;;;;1.95;1.30;;;17.30;68.30;;;;;;4213539;28;20210;-71
2022/04/03 02:48:50;;;;;;;1.90;1.20;;;17.30;68.20;;;;;;4214622;28;20678;-71
2022/04/03 02:50:52;;;;;;;1.65;1.25;;;17.30;68.20;;;;;;4214387;28;20222;-71
2022/04/03 02:52:56;;;;;;;1.70;1.20;;;17.30;68.20;;;;;;4214870;28;20268;-71
2022/04/03 02:54:58;;;;;;;1.80;1.30;;;17.20;68.10;;;;;;4215577;28;20219;-71
2022/04/03 02:57:01;;;;;;;1.73;1.30;;;17.30;68.20;;;;;;4223582;28;20237;-71
2022/04/03 02:59:03;;;;;;;1.80;1.50;;;17.20;68.10;;;;;;4231376;28;20221;-71
2022/04/03 03:01:06;;;;;;;1.80;1.40;;;17.30;68.10;;;;;;4231367;28;20222;-71
2022/04/03 03:03:09;;;;;;;1.80;1.55;;;17.20;68.10;;;;;;4217486;28;20561;-71
2022/04/03 03:05:13;;;;;;;2.63;1.38;;;17.20;68.10;;;;;;4218969;28;20215;-71
2022/04/03 03:07:16;;;;;;;2.55;1.35;;;17.20;68.00;;;;;;4214205;28;21077;-71
2022/04/03 03:09:18;;;;;;;2.80;1.42;;;17.20;68.00;;;;;;4214393;28;20666;-71
2022/04/03 03:11:21;;;;;;;2.25;1.33;;;17.20;68.20;;;;;;4214431;28;20595;-71
2022/04/03 03:13:23;;;;;;;1.35;1.20;;;17.10;68.10;;;;;;4214324;28;20206;-71
2022/04/03 03:15:26;;;;;;;2.80;1.08;;;17.20;68.10;;;;;;4212450;28;20219;-71
2022/04/03 03:17:28;;;;;;;2.20;1.42;;;17.20;68.00;;;;;;4213897;28;20299;-71
2022/04/03 03:19:32;;;;;;;1.70;1.40;;;17.20;68.00;;;;;;4214398;28;20218;-71
2022/04/03 03:21:34;;;;;;;1.90;1.13;;;17.20;68.00;;;;;;4213621;28;20214;-71
2022/04/03 03:23:40;;;;;;;1.65;1.10;;;17.20;68.00;;;;;;4213978;28;20305;-71
2022/04/03 03:25:43;;;;;;;1.95;1.13;;;17.10;67.90;;;;;;4213622;28;20214;-71
2022/04/03 03:27:45;;;;;;;2.05;1.23;;;17.10;67.80;;;;;;4213483;28;20237;-71
2022/04/03 03:29:48;;;;;;;2.17;0.98;;;17.10;67.80;;;;;;4214693;28;20264;-71
2022/04/03 03:31:50;;;;;;;1.80;1.25;;;17.10;67.70;;;;;;4214130;28;20233;-71
2022/04/03 03:33:52;;;;;;;1.85;1.17;;;17.10;67.70;;;;;;4213629;28;20643;-71
2022/04/03 03:35:56;;;;;;;1.30;1.05;;;17.10;67.80;;;;;;4213722;28;20276;-71
2022/04/03 03:37:58;;;;;;;2.72;1.13;;;17.10;67.90;;;;;;4213329;28;20279;-71
2022/04/03 03:40:00;;;;;;;1.38;1.20;;;17.10;67.70;;;;;;4213388;28;20222;-71
2022/04/03 03:42:03;;;;;;;2.53;1.15;;;17.10;68.60;;;;;;4213302;28;20218;-71
2022/04/03 03:44:10;;;;;;;1.23;1.10;;;17.10;67.60;;;;;;4213614;28;20227;-72
2022/04/03 03:46:12;;;;;;;1.73;1.15;;;17.10;67.70;;;;;;4211510;28;20622;-71
2022/04/03 03:48:14;;;;;;;1.88;1.30;;;17.10;67.90;;;;;;4213523;28;20240;-71
2022/04/03 03:50:17;;;;;;;1.40;1.17;;;17.10;67.80;;;;;;4213701;28;20214;-71
2022/04/03 03:52:20;;;;;;;1.67;1.05;;;17.10;67.70;;;;;;4211994;28;20214;-72
2022/04/03 03:54:23;;;;;;;1.85;1.30;;;17.10;67.60;;;;;;4212908;28;20223;-71
2022/04/03 03:56:26;;;;;;;2.83;1.38;;;17.10;67.70;;;;;;4212802;28;20210;-71
2022/04/03 03:58:28;;;;;;;1.85;1.10;;;17.10;67.70;;;;;;4204344;28;20230;-71
2022/04/03 04:00:30;;;;;;;2.00;1.20;;;17.00;68.30;;;;;;4213062;28;20218;-71
2022/04/03 04:02:33;;;;;;;2.10;1.38;;;17.00;67.40;;;;;;4211043;28;20632;-71
2022/04/03 04:04:35;;;;;;;2.10;1.20;;;17.00;67.50;;;;;;4211647;28;20614;-71
2022/04/03 04:06:37;;;;;;;1.27;0.98;;;17.00;67.60;;;;;;4213176;28;20283;-71
2022/04/03 04:08:41;;;;;;;1.80;1.30;;;17.00;67.70;;;;;;4212782;28;20210;-71
2022/04/03 04:10:44;;;;;;;1.23;1.00;;;17.10;67.50;;;;;;4213071;28;20264;-71
2022/04/03 04:12:48;;;;;;;1.90;1.20;;;17.00;67.40;;;;;;4212896;28;20981;-71
2022/04/03 04:14:50;;;;;;;1.63;1.17;;;17.10;67.60;;;;;;4213352;28;20283;-71
2022/04/03 04:16:52;;;;;;;2.53;1.42;;;17.00;67.40;;;;;;4213143;28;20627;-71
2022/04/03 04:18:54;;;;;;;1.70;1.20;;;17.00;67.60;;;;;;4213023;28;20642;-71
2022/04/03 04:20:57;;;;;;;1.88;1.20;;;17.10;67.80;;;;;;4210190;28;20210;-71
2022/04/03 04:23:01;;;;;;;1.98;1.10;;;17.00;67.50;;;;;;4212712;28;20261;-71
2022/04/03 04:25:06;;;;;;;2.15;1.10;;;17.00;67.60;;;;;;4212658;28;20219;-71
2022/04/03 04:27:08;;;;;;;1.83;1.05;;;17.00;67.50;;;;;;4212387;28;20276;-71
2022/04/03 04:29:11;;;;;;;1.33;1.13;;;17.00;67.30;;;;;;4212612;28;20244;-71
2022/04/03 04:31:14;;;;;;;1.95;1.10;;;17.00;67.40;;;;;;4212863;28;20214;-71
2022/04/03 04:33:16;;;;;;;2.05;1.10;;;17.00;67.40;;;;;;4219881;28;20279;-71
2022/04/03 04:35:19;;;;;;;2.72;1.23;;;17.00;67.50;;;;;;4229746;28;20214;-71
2022/04/03 04:37:22;;;;;;;2.72;1.10;;;17.00;67.30;;;;;;4220415;28;20246;-71
2022/04/03 04:39:24;;;;;;;2.75;1.27;;;17.00;67.50;;;;;;4229296;28;20263;-71
2022/04/03 04:41:28;;;;;;;2.10;1.13;;;16.90;67.40;;;;;;4229803;28;20209;-71
2022/04/03 04:43:30;;;;;;;3.03;1.33;;;17.00;67.50;;;;;;4229549;28;20260;-71
2022/04/03 04:45:32;;;;;;;2.63;1.33;;;17.00;67.40;;;;;;4229538;28;20264;-71
2022/04/03 04:47:35;;;;;;;1.13;1.00;;;16.90;67.30;;;;;;4229684;28;20645;-71
2022/04/03 04:49:38;;;;;;;1.55;1.08;;;16.90;67.30;;;;;;4229159;28;20259;-72
2022/04/03 04:51:40;;;;;;;1.45;1.30;;;16.90;67.30;;;;;;4224743;28;20221;-71
2022/04/03 04:53:43;;;;;;;2.72;1.30;;;17.00;67.40;;;;;;4228482;28;20278;-71
2022/04/03 04:55:45;;;;;;;2.08;1.25;;;16.90;67.30;;;;;;4227571;28;20226;-71
2022/04/03 04:57:52;;;;;;;1.90;1.33;;;17.00;67.30;;;;;;4229015;28;20233;-71
2022/04/03 04:59:54;;;;;;;2.72;1.48;;;16.90;67.30;;;;;;4229098;28;20323;-71
2022/04/03 05:01:58;;;;;;;1.92;1.23;;;16.90;67.30;;;;;;4226015;28;20259;-71
2022/04/03 05:04:01;;;;;;;2.72;1.10;;;16.90;67.30;;;;;;4228578;28;20737;-72
2022/04/03 05:06:03;;;;;;;1.70;1.30;;;16.90;67.30;;;;;;4228988;28;20733;-71
2022/04/03 05:08:07;;;;;;;2.50;1.40;;;16.90;67.10;;;;;;4228734;28;20978;-71
2022/04/03 05:10:10;;;;;;;1.80;1.20;;;16.90;67.40;;;;;;4228833;28;20562;-71
2022/04/03 05:12:14;;;;;;;2.65;1.25;;;16.90;67.30;;;;;;4225857;28;20259;-71
2022/04/03 05:14:18;;;;;;;2.17;1.15;;;16.90;67.30;;;;;;4229205;28;20263;-71
2022/04/03 05:16:20;;;;;;;1.50;1.10;;;16.90;67.30;;;;;;4228879;28;20271;-71
2022/04/03 05:18:23;;;;;;;2.83;1.13;;;16.90;67.30;;;;;;4228714;28;20618;-71
2022/04/03 05:20:26;;;;;;;1.65;1.10;;;16.90;67.20;;;;;;4228786;28;20271;-70
2022/04/03 05:22:28;;;;;;;1.60;1.42;;;16.80;67.20;;;;;;4228770;28;20681;-71
2022/04/03 05:24:30;;;;;;;1.58;1.23;;;16.90;67.20;;;;;;4228873;28;20259;-71
2022/04/03 05:26:33;;;;;;;1.80;1.30;;;16.90;67.20;;;;;;4229161;28;20627;-72
2022/04/03 05:28:35;;;;;;;2.10;1.27;;;16.90;67.20;;;;;;4225538;28;20256;-71
2022/04/03 05:30:39;;;;;;;1.63;1.10;;;16.80;67.10;;;;;;4228628;28;20214;-71
2022/04/03 05:32:42;;;;;;;3.25;1.13;;;16.80;67.10;;;;;;4228605;28;20274;-71
2022/04/03 05:34:45;;;;;;;1.80;1.05;;;16.80;67.10;;;;;;4228827;28;20213;-71
2022/04/03 05:36:47;;;;;;;2.70;1.50;;;16.80;67.10;;;;;;4228524;28;20214;-71
2022/04/03 05:38:50;;;;;;;1.45;1.10;;;16.80;67.30;;;;;;4228773;28;20283;-71
2022/04/03 05:40:52;;;;;;;1.90;1.00;;;16.80;67.10;;;;;;4226458;28;20266;-71
2022/04/03 05:42:54;;;;;;;3.40;1.23;;;16.80;67.20;;;;;;4228415;28;20225;-71
2022/04/03 05:44:57;;;;;;;2.47;1.13;;;16.80;67.20;;;;;;4225044;28;20186;-71
2022/04/03 05:47:01;;;;;;;2.95;1.40;;;16.80;68.00;;;;;;4228494;28;20373;-71
2022/04/03 05:49:03;;;;;;;1.45;1.20;;;16.80;67.20;;;;;;4228587;28;20255;-71
2022/04/03 05:51:05;;;;;;;2.88;1.35;;;16.80;67.10;;;;;;4228326;28;20214;-71
2022/04/03 05:53:08;;;;;;;1.92;1.08;;;16.80;67.90;;;;;;4228525;28;20263;-71
2022/04/03 05:55:11;;;;;;;2.10;1.40;;;16.80;67.20;;;;;;4227924;28;20623;-71
2022/04/03 05:57:14;;;;;;;1.67;1.13;;;16.80;67.90;;;;;;4228517;28;20271;-71
2022/04/03 05:59:18;;;;;;;1.58;1.15;;;16.80;67.20;;;;;;4228363;28;20237;-71
2022/04/03 06:01:21;;;;;;;1.88;1.20;;;16.80;67.20;;;;;;4227544;28;20221;-71
2022/04/03 06:03:24;;;;;;;2.20;1.42;;;16.80;67.20;;;;;;4225482;28;20802;-71
2022/04/03 06:05:29;;;;;;;3.33;1.50;;;16.80;67.10;;;;;;4228360;28;20290;-71
2022/04/03 06:07:32;;;;;;;1.63;1.08;;;16.80;67.20;;;;;;4228592;28;20259;-71
2022/04/03 06:09:34;;;;;;;1.92;1.40;;;16.80;67.20;;;;;;4228131;28;20217;-71
2022/04/03 06:11:36;;;;;;;1.50;1.30;;;16.80;67.20;;;;;;4228358;28;20623;-71
2022/04/03 06:13:40;;;;;;;1.98;1.20;;;16.80;67.20;;;;;;4227811;28;20217;-71
2022/04/03 06:15:46;;;;;;;2.30;1.35;;;16.80;67.20;;;;;;4228306;28;20706;-71
2022/04/03 06:17:49;;;;;;;2.03;1.23;;;16.90;67.70;;;;;;4228274;28;20225;-71
2022/04/03 06:19:53;;;;;;;2.38;1.50;;;16.80;67.40;;;;;;4224180;28;20230;-71
2022/04/03 06:21:55;;;;;;;1.55;1.15;;;16.80;67.50;;;;;;4230717;28;20235;-71
2022/04/03 06:23:57;;;;;;;1.48;0.98;;;16.80;67.30;;;;;;4232040;28;20270;-71
2022/04/03 06:26:00;;;;;;;2.42;1.30;;;16.80;67.50;;;;;;4231544;28;20266;-71
2022/04/03 06:28:02;;;;;;;2.75;1.30;;;16.80;68.30;;;;;;4231550;28;20239;-71
2022/04/03 06:30:06;;;;;;;2.70;1.50;;;16.90;67.60;;;;;;4231156;28;20274;-71
2022/04/03 06:32:09;;;;;;;1.98;1.52;;;16.80;67.30;;;;;;4231304;28;20229;-71
2022/04/03 06:34:11;;;;;;;1.63;1.45;;;16.80;67.50;;;;;;4231169;28;20221;-70
2022/04/03 06:36:15;;;;;;;1.40;1.25;;;16.90;67.70;;;;;;4228770;28;20222;-71
2022/04/03 06:38:17;;;;;;;3.20;1.55;;;16.90;67.60;;;;;;4230163;28;20663;-71
2022/04/03 06:40:20;;;;;;;1.75;1.20;;;16.80;67.60;;;;;;4228575;28;20226;-71
2022/04/03 06:42:22;;;;;;;2.50;1.45;;;16.90;67.90;;;;;;4231151;28;20221;-72
2022/04/03 06:44:25;;;;;;;2.50;1.42;;;16.90;67.60;;;;;;4231352;28;20669;-71
2022/04/03 06:46:28;;;;;;;3.10;1.40;;;16.90;67.60;;;;;;4231305;28;20209;-71
2022/04/03 06:48:30;;;;;;;1.20;1.10;;;16.90;67.70;;;;;;4231442;28;20566;-71
2022/04/03 06:50:33;;;;;;;2.80;1.38;;;16.90;67.70;;;;;;4227612;28;20206;-71
2022/04/03 06:52:37;;;;;;;1.50;1.17;;;16.90;67.70;;;;;;4231186;28;20251;-71
2022/04/03 06:54:39;;;;;;;3.05;1.25;;;16.90;67.90;;;;;;4228811;28;20262;-71
2022/04/03 06:56:42;;;;;;;2.92;1.30;;;16.90;67.70;;;;;;4229951;28;20206;-71
2022/04/03 06:58:44;;;;;;;1.70;1.25;;;16.90;67.60;;;;;;4231068;28;20237;-71
2022/04/03 07:00:46;;;;;;;2.00;1.40;;;16.90;67.70;;;;;;4230996;28;20279;-71
2022/04/03 07:02:49;;;;;;;1.60;1.30;;;16.90;67.80;;;;;;4231299;28;20221;-71
2022/04/03 07:04:51;;;;;;;2.65;1.42;;;16.90;67.80;;;;;;4231276;28;20669;-71
2022/04/03 07:06:54;;;;;;;1.27;1.17;;;16.90;67.90;;;;;;4231049;28;20222;-71
2022/04/03 07:08:57;;;;;;;1.55;1.45;;;16.90;67.70;;;;;;4230991;28;20243;-71
2022/04/03 07:10:59;;;;;;;1.70;1.20;;;16.90;67.70;;;;;;4227185;28;20290;-72
2022/04/03 07:13:02;;;;;;;2.47;1.45;;;16.90;67.80;;;;;;4229940;28;20214;-71
2022/04/03 07:15:08;;;;;;;2.30;1.40;;;16.90;67.70;;;;;;4231089;28;20283;-71
2022/04/03 07:17:10;;;;;;;3.92;1.50;;;16.90;67.70;;;;;;4231038;28;20236;-71
2022/04/03 07:19:12;;;;;;;2.10;1.40;;;16.90;67.70;;;;;;4231030;28;20639;-71
2022/04/03 07:21:15;;;;;;;1.85;1.40;;;16.80;67.60;;;;;;4230939;28;20283;-71
2022/04/03 07:23:17;;;;;;;3.75;1.40;;;16.90;67.80;;;;;;4230776;28;20263;-71
2022/04/03 07:25:21;;;;;;;1.35;1.20;;;16.80;67.60;;;;;;4230621;28;20222;-71
2022/04/03 07:27:23;;;;;;;1.95;1.38;;;16.90;67.90;;;;;;4227731;28;20660;-71
2022/04/03 07:29:26;;;;;;;2.28;1.30;;;16.90;67.90;;;;;;4228543;28;20658;-71
2022/04/03 07:31:29;;;;;;;2.17;1.30;;;16.90;67.60;;;;;;4229807;28;20621;-71
2022/04/03 07:33:31;;;;;;;2.63;1.17;;;16.90;67.70;;;;;;4230332;28;20242;-71
2022/04/03 07:35:33;;;;;;;2.28;1.50;;;16.80;67.60;;;;;;4230363;28;20670;-71
2022/04/03 07:37:36;;;;;;;1.48;1.20;;;16.80;67.60;;;;;;4230406;28;20294;-71
2022/04/03 07:39:38;;;;;;;1.77;1.52;;;16.80;67.70;;;;;;4229824;28;20585;-71
2022/04/03 07:41:42;;;;;;;2.65;1.50;;;16.90;67.70;;;;;;4230505;28;20221;-71
2022/04/03 07:43:44;;;;;;;2.22;1.50;;;16.90;67.80;;;;;;4229604;28;20210;-71
2022/04/03 07:45:49;;;;;;;1.73;1.20;;;16.90;68.00;;;;;;4228430;28;20222;-70
2022/04/03 07:47:52;;;;;;;1.63;1.30;;;16.90;67.80;;;;;;4228916;28;20233;-71
2022/04/03 07:49:54;;;;;;;1.75;1.40;;;16.90;68.00;;;;;;4229969;28;20210;-71
2022/04/03 07:51:57;;;;;;;1.25;1.02;;;16.90;68.00;;;;;;4230298;28;20274;-71
2022/04/03 07:53:59;;;;;;;2.47;1.50;;;16.90;67.80;;;;;;4230579;28;20563;-71
2022/04/03 07:56:02;;;;;;;1.20;1.10;;;16.90;67.70;;;;;;4230207;28;20218;-71
2022/04/03 07:58:06;;;;;;;1.55;1.30;;;16.90;67.70;;;;;;4230134;28;20255;-71
2022/04/03 08:00:11;;;;;;;1.60;1.33;;;16.90;67.70;;;;;;4229914;28;20234;-71
2022/04/03 08:02:14;;;;;;;2.58;1.23;;;16.90;67.80;;;;;;4226659;28;20213;-71
2022/04/03 08:04:16;;;;;;;1.95;1.20;;;16.90;68.00;;;;;;4230027;28;20218;-71
2022/04/03 08:06:18;;;;;;;1.98;1.27;;;16.90;68.10;;;;;;4228567;28;21726;-71
2022/04/03 08:08:21;;;;;;;3.25;1.50;;;16.90;67.80;;;;;;4229630;28;20326;-71
2022/04/03 08:10:23;;;;;;;2.58;1.35;;;16.90;68.00;;;;;;4230141;28;20243;-71
2022/04/03 08:12:26;;;;;;;1.42;1.13;;;16.90;68.70;;;;;;4229823;28;20221;-71
2022/04/03 08:14:29;;;;;;;2.67;1.30;;;17.00;68.20;;;;;;4229549;28;20221;-71
2022/04/03 08:16:32;;;;;;;1.85;1.10;;;16.90;68.10;;;;;;4229836;28;20674;-72
2022/04/03 08:18:34;;;;;;;2.40;1.50;;;16.90;68.50;;;;;;4225718;28;20225;-71
2022/04/03 08:20:36;;;;;;;2.80;1.40;;;17.00;67.90;;;;;;4230069;28;20302;-71
2022/04/03 08:22:40;;;;;;;1.50;1.00;;;16.90;68.00;;;;;;4230105;28;20214;-71
2022/04/03 08:24:43;;;;;;;1.70;1.05;;;17.00;68.00;;;;;;4228505;28;20209;-72
2022/04/03 08:26:46;;;;;;;1.75;1.10;;;17.00;68.10;;;;;;4228055;28;20262;-72
2022/04/03 08:28:48;;;;;;;1.95;1.08;;;17.00;68.10;;;;;;4225624;28;20260;-73
2022/04/03 08:30:52;;;;;;;2.00;1.40;;;17.00;68.00;;;;;;4229809;28;20255;-72
2022/04/03 08:32:55;;;;;;;1.85;1.10;;;17.00;68.10;;;;;;4219071;28;20291;-72
2022/04/03 08:34:58;;;;;;;1.73;1.30;;;17.00;68.30;;;;;;4211495;28;20223;-72
2022/04/03 08:37:00;;;;;;;1.48;1.20;;;17.00;68.10;;;;;;4212993;28;20260;-72
2022/04/03 08:39:03;;;;;;;1.33;1.13;;;17.00;68.20;;;;;;4210079;28;20202;-72
2022/04/03 08:41:05;;;;;;;1.67;1.30;;;17.00;68.00;;;;;;4212876;28;20260;-72
2022/04/03 08:43:08;;;;;;;1.75;1.20;;;17.00;68.10;;;;;;4211428;28;20264;-72
2022/04/03 08:45:12;;;;;;;2.08;1.02;;;17.00;68.20;;;;;;4212420;28;20223;-72
2022/04/03 08:47:18;;;;;;;1.38;1.20;;;17.00;68.20;;;;;;4212698;28;20241;-72
2022/04/03 08:49:21;;;;;;;2.63;1.30;;;17.00;68.10;;;;;;4212674;28;20218;-72
2022/04/03 08:51:26;;;;;;;1.65;1.08;;;17.00;68.20;;;;;;4212661;28;20214;-72
2022/04/03 08:53:31;;;;;;;1.77;1.08;;;17.00;68.30;;;;;;4211094;28;20224;-72
2022/04/03 08:55:34;;;;;;;1.98;1.30;;;17.00;68.60;;;;;;4212910;28;20222;-72
2022/04/03 08:57:36;;;;;;;1.50;0.98;;;17.00;68.30;;;;;;4212265;28;20218;-72
2022/04/03 08:59:39;;;;;;;1.52;1.17;;;17.00;68.10;;;;;;4211043;28;20214;-73
2022/04/03 09:01:41;;;;;;;1.80;1.30;;;17.00;68.20;;;;;;4212200;28;20332;-73
2022/04/03 09:03:45;;;;;;;1.48;1.00;;;17.00;68.30;;;;;;4212618;28;20219;-72
2022/04/03 09:05:47;;;;;;;2.45;1.40;;;17.10;68.70;;;;;;4212336;28;20226;-72
2022/04/03 09:08:00;;;;;;;1.55;1.10;;;17.10;68.70;;;;;;4212558;28;20210;-72
2022/04/03 09:10:08;;;;;;;1.20;1.00;;;17.10;68.80;;;;;;4210242;28;20210;-72
2022/04/03 09:12:12;;;;;;;1.25;1.13;;;17.10;68.30;;;;;;4212271;28;20263;-72
2022/04/03 09:14:14;;;;;;;1.90;1.08;;;17.10;68.70;;;;;;4211416;28;20612;-73
2022/04/03 09:16:16;;;;;;;2.00;1.00;;;17.10;68.30;;;;;;4210502;28;20214;-72
2022/04/03 09:18:19;;;;;;;1.73;1.17;;;17.10;69.10;;;;;;4210545;28;20275;-73
2022/04/03 09:20:25;;;;;;;1.73;1.30;;;17.10;68.70;;;;;;4212186;28;20262;-73
2022/04/03 09:22:29;;;;;;;2.38;0.98;;;17.10;68.50;;;;;;4211996;28;20309;-73
2022/04/03 09:24:34;;;;;;;1.38;1.05;;;17.10;68.40;;;;;;4211631;28;20267;-73
2022/04/03 09:26:39;;;;;;;1.17;1.00;;;17.10;68.30;;;;;;4210795;28;20260;-73
2022/04/03 09:28:41;;;;;;;2.35;1.20;;;17.10;68.20;;;;;;4210703;28;20273;-73
2022/04/03 09:30:47;;;;;;;3.10;1.08;;;17.10;68.10;;;;;;4212093;28;20210;-72
2022/04/03 09:32:51;;;;;;;1.30;1.05;;;17.10;68.30;;;;;;4210878;28;20303;-73
2022/04/03 09:34:56;;;;;;;1.83;1.38;;;17.10;68.30;;;;;;4212305;28;20223;-72
2022/04/03 09:37:05;;;;;;;2.60;1.20;;;17.10;68.40;;;;;;4211815;28;20222;-73
2022/04/03 09:39:09;;;;;;;1.45;1.13;;;17.10;68.30;;;;;;4211956;28;20214;-73
2022/04/03 09:41:11;;;;;;;1.75;1.10;;;17.10;68.30;;;;;;4211718;28;20803;-73
2022/04/03 09:43:19;;;;;;;1.45;1.00;;;17.10;68.10;;;;;;4210108;28;20291;-73
2022/04/03 09:45:26;;;;;;;2.67;1.10;;;17.10;68.30;;;;;;4211701;28;20217;-72
2022/04/03 09:47:30;;;;;;;1.38;1.08;;;17.10;68.30;;;;;;4212148;28;20218;-72
2022/04/03 09:49:33;;;;;;;1.33;1.15;;;17.10;68.50;;;;;;4205094;28;20325;-73
2022/04/03 09:51:36;;;;;;;1.23;0.90;;;17.10;69.20;;;;;;4211735;28;20234;-73
2022/04/03 09:53:47;;;;;;;2.00;1.00;;;17.10;68.50;;;;;;4211906;28;20226;-72
2022/04/03 09:55:49;;;;;;;1.52;0.90;;;17.10;68.50;;;;;;4211830;28;20222;-72
2022/04/03 09:58:03;;;;;;;1.17;0.80;;;17.10;68.70;;;;;;4211909;28;20264;-72
2022/04/03 10:00:06;;;;;;;1.42;1.15;;;17.10;68.80;;;;;;4206095;28;20270;-72
2022/04/03 10:02:14;;;;;;;1.55;1.08;;;17.10;68.70;;;;;;4209750;28;20214;-72
2022/04/03 10:04:17;;;;;;;1.50;1.00;;;17.10;68.60;;;;;;4207655;28;20556;-72
2022/04/03 10:06:19;;;;;;;1.17;0.90;;;17.10;68.70;;;;;;4206212;28;20214;-72
2022/04/03 10:08:23;;;;;;;1.27;0.90;;;17.10;68.50;;;;;;4211721;28;20217;-72
2022/04/03 10:10:28;;;;;;;2.03;1.10;;;17.10;68.70;;;;;;4211970;28;20215;-70
2022/04/03 10:12:31;;;;;;;1.70;1.08;;;17.10;68.70;;;;;;4211793;28;20628;-71
2022/04/03 10:14:35;;;;;;;2.00;1.10;;;17.10;68.70;;;;;;4206297;28;20265;-71
2022/04/03 10:16:37;;;;;;;2.05;1.10;;;17.10;68.80;;;;;;4201704;28;20215;-71
2022/04/03 10:18:41;;;;;;;2.25;1.02;;;17.10;69.50;;;;;;4204174;28;20225;-71
2022/04/03 10:20:44;;;;;;;1.25;0.88;;;17.20;69.10;;;;;;4211102;28;20238;-71
2022/04/03 10:22:49;;;;;;;2.30;1.15;;;17.10;68.90;;;;;;4211277;28;20214;-71
2022/04/03 10:24:54;;;;;;;1.20;1.10;;;17.10;69.00;;;;;;4210657;28;20214;-71
2022/04/03 10:27:11;;;;;;;1.00;0.80;;;17.10;68.90;;;;;;4210300;28;20218;-71
2022/04/03 10:29:14;;;;;;;1.58;0.90;;;17.10;68.80;;;;;;4211283;28;20206;-70
2022/04/03 10:31:17;;;;;;;1.15;1.00;;;17.10;68.90;;;;;;4210167;28;20211;-71
2022/04/03 10:33:20;;;;;;;1.23;1.10;;;17.10;68.90;;;;;;4211282;28;20261;-71
2022/04/03 10:35:22;;;;;;;1.83;0.85;;;17.10;68.80;;;;;;4210471;28;20662;-71
2022/04/03 10:37:27;;;;;;;1.52;1.27;;;17.10;68.90;;;;;;4211143;28;20222;-70
2022/04/03 10:39:32;;;;;;;1.10;1.00;;;17.10;68.90;;;;;;4211526;28;20248;-71
2022/04/03 10:41:36;;;;;;;1.33;1.08;;;17.10;68.90;;;;;;4210336;28;20238;-70